sensor_id;sensor_type;location;lat;lon;timestamp;temperature;humidity
41344;DHT22;27089;50.022;7.604;2023-09-07T00:01:56;15.20;99.90
41344;DHT22;27089;50.022;7.604;2023-09-07T00:04:23;15.10;99.90
41344;DHT22;27089;50.022;7.604;2023-09-07T00:06:50;15.00;99.90
41344;DHT22;27089;50.022;7.604;2023-09-07T00:09:17;14.90;99.90
41344;DHT22;27089;50.022;7.604;2023-09-07T00:11:48;14.80;99.90
41344;DHT22;27089;50.022;7.604;2023-09-07T00:14:16;14.70;99.90
41344;DHT22;27089;50.022;7.604;2023-09-07T00:16:43;14.70;99.90
41344;DHT22;27089;50.022;7.604;2023-09-07T00:19:09;14.60;99.90
41344;DHT22;27089;50.022;7.604;2023-09-07T00:21:36;14.50;99.90
41344;DHT22;27089;50.022;7.604;2023-09-07T00:24:04;14.50;99.90
41344;DHT22;27089;50.022;7.604;2023-09-07T00:26:31;14.50;99.90
41344;DHT22;27089;50.022;7.604;2023-09-07T00:29:00;14.50;99.90
41344;DHT22;27089;50.022;7.604;2023-09-07T00:31:27;14.50;99.90
41344;DHT22;27089;50.022;7.604;2023-09-07T00:33:54;14.60;99.90
41344;DHT22;27089;50.022;7.604;2023-09-07T00:36:21;14.60;99.90
41344;DHT22;27089;50.022;7.604;2023-09-07T00:38:48;14.70;99.90
41344;DHT22;27089;50.022;7.604;2023-09-07T00:41:15;14.90;99.90
41344;DHT22;27089;50.022;7.604;2023-09-07T00:43:42;14.90;99.90
41344;DHT22;27089;50.022;7.604;2023-09-07T00:46:10;14.90;99.90
41344;DHT22;27089;50.022;7.604;2023-09-07T00:48:38;14.80;99.90
41344;DHT22;27089;50.022;7.604;2023-09-07T00:51:07;14.80;99.90
41344;DHT22;27089;50.022;7.604;2023-09-07T00:53:34;14.80;99.90
41344;DHT22;27089;50.022;7.604;2023-09-07T00:56:02;14.70;99.90
41344;DHT22;27089;50.022;7.604;2023-09-07T00:58:29;14.60;99.90
41344;DHT22;27089;50.022;7.604;2023-09-07T01:00:56;14.50;99.90
41344;DHT22;27089;50.022;7.604;2023-09-07T01:03:25;14.50;99.90
41344;DHT22;27089;50.022;7.604;2023-09-07T01:05:56;14.50;99.90
41344;DHT22;27089;50.022;7.604;2023-09-07T01:08:29;14.50;99.90
41344;DHT22;27089;50.022;7.604;2023-09-07T01:10:58;14.70;99.90
41344;DHT22;27089;50.022;7.604;2023-09-07T01:13:25;14.70;99.90
41344;DHT22;27089;50.022;7.604;2023-09-07T01:15:52;14.80;99.90
41344;DHT22;27089;50.022;7.604;2023-09-07T01:18:19;14.70;99.90
41344;DHT22;27089;50.022;7.604;2023-09-07T01:20:48;14.70;99.90
41344;DHT22;27089;50.022;7.604;2023-09-07T01:23:17;14.70;99.90
41344;DHT22;27089;50.022;7.604;2023-09-07T01:25:45;14.70;99.90
41344;DHT22;27089;50.022;7.604;2023-09-07T01:28:12;14.50;99.90
41344;DHT22;27089;50.022;7.604;2023-09-07T01:30:40;14.60;99.90
41344;DHT22;27089;50.022;7.604;2023-09-07T01:33:07;14.60;99.90
41344;DHT22;27089;50.022;7.604;2023-09-07T01:35:35;14.60;99.90
41344;DHT22;27089;50.022;7.604;2023-09-07T01:38:03;14.50;99.90
41344;DHT22;27089;50.022;7.604;2023-09-07T01:40:31;14.50;99.90
41344;DHT22;27089;50.022;7.604;2023-09-07T01:42:58;14.60;99.90
41344;DHT22;27089;50.022;7.604;2023-09-07T01:45:25;14.50;99.90
41344;DHT22;27089;50.022;7.604;2023-09-07T01:47:52;14.50;99.90
41344;DHT22;27089;50.022;7.604;2023-09-07T01:50:19;14.50;99.90
41344;DHT22;27089;50.022;7.604;2023-09-07T01:52:47;14.40;99.90
41344;DHT22;27089;50.022;7.604;2023-09-07T01:55:15;14.40;99.90
41344;DHT22;27089;50.022;7.604;2023-09-07T01:57:44;14.40;99.90
41344;DHT22;27089;50.022;7.604;2023-09-07T02:00:12;14.40;99.90
41344;DHT22;27089;50.022;7.604;2023-09-07T02:02:39;14.30;99.90
41344;DHT22;27089;50.022;7.604;2023-09-07T02:05:06;14.10;99.90
41344;DHT22;27089;50.022;7.604;2023-09-07T02:07:33;14.10;99.90
41344;DHT22;27089;50.022;7.604;2023-09-07T02:10:01;14.10;99.90
41344;DHT22;27089;50.022;7.604;2023-09-07T02:12:28;14.00;99.90
41344;DHT22;27089;50.022;7.604;2023-09-07T02:15:01;14.00;99.90
41344;DHT22;27089;50.022;7.604;2023-09-07T02:17:28;14.10;99.90
41344;DHT22;27089;50.022;7.604;2023-09-07T02:19:55;14.10;99.90
41344;DHT22;27089;50.022;7.604;2023-09-07T02:22:22;14.10;99.90
41344;DHT22;27089;50.022;7.604;2023-09-07T02:24:49;14.10;99.90
41344;DHT22;27089;50.022;7.604;2023-09-07T02:27:16;14.10;99.90
41344;DHT22;27089;50.022;7.604;2023-09-07T02:29:43;14.00;99.90
41344;DHT22;27089;50.022;7.604;2023-09-07T02:32:12;13.90;99.90
41344;DHT22;27089;50.022;7.604;2023-09-07T02:34:39;13.80;99.90
41344;DHT22;27089;50.022;7.604;2023-09-07T02:37:06;13.80;99.90
41344;DHT22;27089;50.022;7.604;2023-09-07T02:39:33;13.70;99.90
41344;DHT22;27089;50.022;7.604;2023-09-07T02:41:59;13.60;99.90
41344;DHT22;27089;50.022;7.604;2023-09-07T02:44:26;13.50;99.90
41344;DHT22;27089;50.022;7.604;2023-09-07T02:46:54;13.50;99.90
41344;DHT22;27089;50.022;7.604;2023-09-07T02:49:22;13.50;99.90
41344;DHT22;27089;50.022;7.604;2023-09-07T02:51:49;13.50;99.90
41344;DHT22;27089;50.022;7.604;2023-09-07T02:54:16;13.40;99.90
41344;DHT22;27089;50.022;7.604;2023-09-07T02:56:43;13.40;99.90
41344;DHT22;27089;50.022;7.604;2023-09-07T02:59:10;13.40;99.90
41344;DHT22;27089;50.022;7.604;2023-09-07T03:01:38;13.40;99.90
41344;DHT22;27089;50.022;7.604;2023-09-07T03:04:06;13.30;99.90
41344;DHT22;27089;50.022;7.604;2023-09-07T03:06:34;13.30;99.90
41344;DHT22;27089;50.022;7.604;2023-09-07T03:09:01;13.30;99.90
41344;DHT22;27089;50.022;7.604;2023-09-07T03:11:28;13.20;99.90
41344;DHT22;27089;50.022;7.604;2023-09-07T03:13:59;13.20;99.90
41344;DHT22;27089;50.022;7.604;2023-09-07T03:16:25;13.20;99.90
41344;DHT22;27089;50.022;7.604;2023-09-07T03:18:52;13.20;99.90
41344;DHT22;27089;50.022;7.604;2023-09-07T03:21:19;13.20;99.90
41344;DHT22;27089;50.022;7.604;2023-09-07T03:23:52;13.20;99.90
41344;DHT22;27089;50.022;7.604;2023-09-07T03:26:19;13.10;99.90
41344;DHT22;27089;50.022;7.604;2023-09-07T03:28:46;13.10;99.90
41344;DHT22;27089;50.022;7.604;2023-09-07T03:31:13;13.10;99.90
41344;DHT22;27089;50.022;7.604;2023-09-07T03:33:40;13.10;99.90
41344;DHT22;27089;50.022;7.604;2023-09-07T03:36:07;13.10;99.90
41344;DHT22;27089;50.022;7.604;2023-09-07T03:38:35;13.10;99.90
41344;DHT22;27089;50.022;7.604;2023-09-07T03:41:04;13.20;99.90
41344;DHT22;27089;50.022;7.604;2023-09-07T03:43:31;13.20;99.90
41344;DHT22;27089;50.022;7.604;2023-09-07T03:45:58;13.30;99.90
41344;DHT22;27089;50.022;7.604;2023-09-07T03:48:25;13.30;99.90
41344;DHT22;27089;50.022;7.604;2023-09-07T03:50:52;13.30;99.90
41344;DHT22;27089;50.022;7.604;2023-09-07T03:53:19;13.30;99.90
41344;DHT22;27089;50.022;7.604;2023-09-07T03:55:46;13.30;99.90
41344;DHT22;27089;50.022;7.604;2023-09-07T03:58:14;13.30;99.90
41344;DHT22;27089;50.022;7.604;2023-09-07T04:00:41;13.40;99.90
41344;DHT22;27089;50.022;7.604;2023-09-07T04:03:08;13.40;99.90
41344;DHT22;27089;50.022;7.604;2023-09-07T04:05:37;13.60;99.90
41344;DHT22;27089;50.022;7.604;2023-09-07T04:08:04;13.70;99.90
41344;DHT22;27089;50.022;7.604;2023-09-07T04:10:31;13.70;99.90
41344;DHT22;27089;50.022;7.604;2023-09-07T04:12:58;13.70;99.90
41344;DHT22;27089;50.022;7.604;2023-09-07T04:15:27;13.70;99.90
41344;DHT22;27089;50.022;7.604;2023-09-07T04:17:54;13.70;99.90
41344;DHT22;27089;50.022;7.604;2023-09-07T04:20:21;13.70;99.90
41344;DHT22;27089;50.022;7.604;2023-09-07T04:22:49;13.70;99.90
41344;DHT22;27089;50.022;7.604;2023-09-07T04:25:16;13.80;99.90
41344;DHT22;27089;50.022;7.604;2023-09-07T04:27:43;13.90;99.90
41344;DHT22;27089;50.022;7.604;2023-09-07T04:30:10;13.90;99.90
41344;DHT22;27089;50.022;7.604;2023-09-07T04:32:39;14.00;99.90
41344;DHT22;27089;50.022;7.604;2023-09-07T04:35:06;14.10;99.90
41344;DHT22;27089;50.022;7.604;2023-09-07T04:37:33;14.20;99.90
41344;DHT22;27089;50.022;7.604;2023-09-07T04:40:00;14.20;99.90
41344;DHT22;27089;50.022;7.604;2023-09-07T04:42:28;14.20;99.90
41344;DHT22;27089;50.022;7.604;2023-09-07T04:44:55;14.20;99.90
41344;DHT22;27089;50.022;7.604;2023-09-07T04:47:22;14.30;99.90
41344;DHT22;27089;50.022;7.604;2023-09-07T04:49:50;14.30;99.90
41344;DHT22;27089;50.022;7.604;2023-09-07T04:52:17;14.40;99.90
41344;DHT22;27089;50.022;7.604;2023-09-07T04:54:45;14.40;99.90
41344;DHT22;27089;50.022;7.604;2023-09-07T04:57:13;14.50;99.90
41344;DHT22;27089;50.022;7.604;2023-09-07T04:59:40;14.50;99.90
41344;DHT22;27089;50.022;7.604;2023-09-07T05:02:07;14.60;99.90
41344;DHT22;27089;50.022;7.604;2023-09-07T05:04:34;14.70;99.90
41344;DHT22;27089;50.022;7.604;2023-09-07T05:07:02;14.80;99.90
41344;DHT22;27089;50.022;7.604;2023-09-07T05:09:30;14.80;99.90
41344;DHT22;27089;50.022;7.604;2023-09-07T05:11:57;14.80;99.90
41344;DHT22;27089;50.022;7.604;2023-09-07T05:14:25;14.90;99.90
41344;DHT22;27089;50.022;7.604;2023-09-07T05:16:52;14.90;99.90
41344;DHT22;27089;50.022;7.604;2023-09-07T05:19:21;15.50;99.90
41344;DHT22;27089;50.022;7.604;2023-09-07T05:21:48;16.40;99.90
41344;DHT22;27089;50.022;7.604;2023-09-07T05:24:17;17.40;99.90
41344;DHT22;27089;50.022;7.604;2023-09-07T05:26:44;18.60;99.90
41344;DHT22;27089;50.022;7.604;2023-09-07T05:29:12;19.60;99.90
41344;DHT22;27089;50.022;7.604;2023-09-07T05:31:39;19.80;99.90
41344;DHT22;27089;50.022;7.604;2023-09-07T05:34:05;20.50;99.90
41344;DHT22;27089;50.022;7.604;2023-09-07T05:36:32;21.50;99.90
41344;DHT22;27089;50.022;7.604;2023-09-07T05:38:59;22.60;99.90
41344;DHT22;27089;50.022;7.604;2023-09-07T05:41:29;23.50;99.90
41344;DHT22;27089;50.022;7.604;2023-09-07T05:43:56;24.60;99.90
41344;DHT22;27089;50.022;7.604;2023-09-07T05:46:23;25.60;99.90
41344;DHT22;27089;50.022;7.604;2023-09-07T05:48:50;26.50;99.90
41344;DHT22;27089;50.022;7.604;2023-09-07T05:51:17;27.20;99.90
41344;DHT22;27089;50.022;7.604;2023-09-07T05:53:44;27.90;99.90
41344;DHT22;27089;50.022;7.604;2023-09-07T05:56:11;28.50;99.90
41344;DHT22;27089;50.022;7.604;2023-09-07T05:58:40;29.10;99.70
41344;DHT22;27089;50.022;7.604;2023-09-07T06:01:07;29.80;97.90
41344;DHT22;27089;50.022;7.604;2023-09-07T06:03:34;30.30;95.40
41344;DHT22;27089;50.022;7.604;2023-09-07T06:06:01;30.90;92.80
41344;DHT22;27089;50.022;7.604;2023-09-07T06:08:29;31.70;91.10
41344;DHT22;27089;50.022;7.604;2023-09-07T06:10:56;32.20;87.40
41344;DHT22;27089;50.022;7.604;2023-09-07T06:13:23;32.50;82.00
41344;DHT22;27089;50.022;7.604;2023-09-07T06:15:51;32.80;81.10
41344;DHT22;27089;50.022;7.604;2023-09-07T06:18:18;33.40;77.90
41344;DHT22;27089;50.022;7.604;2023-09-07T06:20:45;33.60;72.20
41344;DHT22;27089;50.022;7.604;2023-09-07T06:23:12;33.50;71.10
41344;DHT22;27089;50.022;7.604;2023-09-07T06:25:39;33.60;71.70
41344;DHT22;27089;50.022;7.604;2023-09-07T06:28:06;33.80;69.00
41344;DHT22;27089;50.022;7.604;2023-09-07T06:30:33;33.60;68.10
41344;DHT22;27089;50.022;7.604;2023-09-07T06:33:02;34.20;68.20
41344;DHT22;27089;50.022;7.604;2023-09-07T06:35:29;34.60;64.60
41344;DHT22;27089;50.022;7.604;2023-09-07T06:37:56;35.00;63.10
41344;DHT22;27089;50.022;7.604;2023-09-07T06:40:23;34.90;62.60
41344;DHT22;27089;50.022;7.604;2023-09-07T06:42:51;34.80;63.20
41344;DHT22;27089;50.022;7.604;2023-09-07T06:45:19;35.00;62.90
41344;DHT22;27089;50.022;7.604;2023-09-07T06:47:49;35.30;61.70
41344;DHT22;27089;50.022;7.604;2023-09-07T06:50:17;35.20;59.70
41344;DHT22;27089;50.022;7.604;2023-09-07T06:52:44;34.10;61.00
41344;DHT22;27089;50.022;7.604;2023-09-07T06:55:11;34.10;63.10
41344;DHT22;27089;50.022;7.604;2023-09-07T06:57:38;34.60;62.10
41344;DHT22;27089;50.022;7.604;2023-09-07T07:00:06;35.40;59.20
41344;DHT22;27089;50.022;7.604;2023-09-07T07:02:34;35.10;59.60
41344;DHT22;27089;50.022;7.604;2023-09-07T07:05:01;35.20;59.70
41344;DHT22;27089;50.022;7.604;2023-09-07T07:07:29;35.00;59.40
41344;DHT22;27089;50.022;7.604;2023-09-07T07:09:57;35.10;60.20
41344;DHT22;27089;50.022;7.604;2023-09-07T07:12:24;35.10;59.10
41344;DHT22;27089;50.022;7.604;2023-09-07T07:14:51;35.00;59.30
41344;DHT22;27089;50.022;7.604;2023-09-07T07:17:18;35.10;58.60
41344;DHT22;27089;50.022;7.604;2023-09-07T07:19:45;35.40;59.00
41344;DHT22;27089;50.022;7.604;2023-09-07T07:22:13;35.70;57.60
41344;DHT22;27089;50.022;7.604;2023-09-07T07:24:41;35.20;58.30
41344;DHT22;27089;50.022;7.604;2023-09-07T07:27:08;34.50;59.10
41344;DHT22;27089;50.022;7.604;2023-09-07T07:29:36;34.20;60.20
41344;DHT22;27089;50.022;7.604;2023-09-07T07:32:04;34.10;61.10
41344;DHT22;27089;50.022;7.604;2023-09-07T07:34:31;34.60;60.80
41344;DHT22;27089;50.022;7.604;2023-09-07T07:36:58;35.50;59.00
41344;DHT22;27089;50.022;7.604;2023-09-07T07:39:25;36.40;57.80
41344;DHT22;27089;50.022;7.604;2023-09-07T07:41:53;36.30;57.00
41344;DHT22;27089;50.022;7.604;2023-09-07T07:44:20;36.20;56.80
41344;DHT22;27089;50.022;7.604;2023-09-07T07:46:47;36.20;57.30
41344;DHT22;27089;50.022;7.604;2023-09-07T07:49:14;36.70;56.10
41344;DHT22;27089;50.022;7.604;2023-09-07T07:51:41;37.40;54.90
41344;DHT22;27089;50.022;7.604;2023-09-07T07:54:08;37.40;55.30
41344;DHT22;27089;50.022;7.604;2023-09-07T07:56:35;36.70;55.20
41344;DHT22;27089;50.022;7.604;2023-09-07T07:59:03;35.40;56.50
41344;DHT22;27089;50.022;7.604;2023-09-07T08:01:30;34.70;58.10
41344;DHT22;27089;50.022;7.604;2023-09-07T08:03:57;34.90;57.20
41344;DHT22;27089;50.022;7.604;2023-09-07T08:06:24;34.80;57.70
41344;DHT22;27089;50.022;7.604;2023-09-07T08:08:51;35.00;57.80
41344;DHT22;27089;50.022;7.604;2023-09-07T08:11:18;34.60;58.50
41344;DHT22;27089;50.022;7.604;2023-09-07T08:13:47;35.00;58.00
41344;DHT22;27089;50.022;7.604;2023-09-07T08:16:15;34.50;58.70
41344;DHT22;27089;50.022;7.604;2023-09-07T08:18:43;34.60;58.80
41344;DHT22;27089;50.022;7.604;2023-09-07T08:21:12;34.50;58.90
41344;DHT22;27089;50.022;7.604;2023-09-07T08:23:39;34.60;58.80
41344;DHT22;27089;50.022;7.604;2023-09-07T08:26:06;34.40;59.30
41344;DHT22;27089;50.022;7.604;2023-09-07T08:28:35;34.40;59.40
41344;DHT22;27089;50.022;7.604;2023-09-07T08:31:02;33.40;61.40
41344;DHT22;27089;50.022;7.604;2023-09-07T08:33:31;34.60;59.90
41344;DHT22;27089;50.022;7.604;2023-09-07T08:36:01;34.40;59.70
41344;DHT22;27089;50.022;7.604;2023-09-07T08:38:29;34.00;59.70
41344;DHT22;27089;50.022;7.604;2023-09-07T08:41:01;34.00;61.10
41344;DHT22;27089;50.022;7.604;2023-09-07T08:43:29;33.00;61.70
41344;DHT22;27089;50.022;7.604;2023-09-07T08:46:04;34.30;59.30
41344;DHT22;27089;50.022;7.604;2023-09-07T08:48:34;34.40;59.30
41344;DHT22;27089;50.022;7.604;2023-09-07T08:51:03;34.30;59.70
41344;DHT22;27089;50.022;7.604;2023-09-07T08:53:31;34.00;60.00
41344;DHT22;27089;50.022;7.604;2023-09-07T08:56:00;34.10;60.50
41344;DHT22;27089;50.022;7.604;2023-09-07T08:58:27;35.20;58.40
41344;DHT22;27089;50.022;7.604;2023-09-07T09:00:55;34.40;59.40
41344;DHT22;27089;50.022;7.604;2023-09-07T09:03:23;34.40;61.10
41344;DHT22;27089;50.022;7.604;2023-09-07T09:05:53;33.50;60.10
41344;DHT22;27089;50.022;7.604;2023-09-07T09:08:21;34.10;61.40
41344;DHT22;27089;50.022;7.604;2023-09-07T09:10:58;35.50;59.50
41344;DHT22;27089;50.022;7.604;2023-09-07T09:13:27;35.70;59.20
41344;DHT22;27089;50.022;7.604;2023-09-07T09:15:54;35.50;59.20
41344;DHT22;27089;50.022;7.604;2023-09-07T09:18:21;35.00;58.60
41344;DHT22;27089;50.022;7.604;2023-09-07T09:20:48;34.20;61.50
41344;DHT22;27089;50.022;7.604;2023-09-07T09:23:17;33.30;61.60
41344;DHT22;27089;50.022;7.604;2023-09-07T09:25:44;32.30;64.00
41344;DHT22;27089;50.022;7.604;2023-09-07T09:28:11;32.20;67.60
41344;DHT22;27089;50.022;7.604;2023-09-07T09:30:38;31.90;66.30
41344;DHT22;27089;50.022;7.604;2023-09-07T09:33:06;31.70;67.20
41344;DHT22;27089;50.022;7.604;2023-09-07T09:35:34;31.00;69.20
41344;DHT22;27089;50.022;7.604;2023-09-07T09:38:02;31.00;69.50
41344;DHT22;27089;50.022;7.604;2023-09-07T09:40:31;30.90;69.90
41344;DHT22;27089;50.022;7.604;2023-09-07T09:43:02;30.50;71.80
41344;DHT22;27089;50.022;7.604;2023-09-07T09:45:29;29.90;72.10
41344;DHT22;27089;50.022;7.604;2023-09-07T09:47:58;29.50;74.50
41344;DHT22;27089;50.022;7.604;2023-09-07T09:50:26;29.60;75.50
41344;DHT22;27089;50.022;7.604;2023-09-07T09:52:53;29.80;74.50
41344;DHT22;27089;50.022;7.604;2023-09-07T09:55:22;29.90;75.20
41344;DHT22;27089;50.022;7.604;2023-09-07T09:57:50;29.90;73.90
41344;DHT22;27089;50.022;7.604;2023-09-07T10:00:17;30.40;74.60
41344;DHT22;27089;50.022;7.604;2023-09-07T10:02:59;30.30;73.70
41344;DHT22;27089;50.022;7.604;2023-09-07T10:05:29;30.10;74.50
41344;DHT22;27089;50.022;7.604;2023-09-07T10:08:01;29.80;75.60
41344;DHT22;27089;50.022;7.604;2023-09-07T10:10:33;29.80;76.00
41344;DHT22;27089;50.022;7.604;2023-09-07T10:13:03;29.60;77.50
41344;DHT22;27089;50.022;7.604;2023-09-07T10:15:30;29.50;77.80
41344;DHT22;27089;50.022;7.604;2023-09-07T10:18:10;29.10;80.80
41344;DHT22;27089;50.022;7.604;2023-09-07T10:20:50;28.80;79.40
41344;DHT22;27089;50.022;7.604;2023-09-07T10:23:18;28.20;80.10
41344;DHT22;27089;50.022;7.604;2023-09-07T10:25:48;28.20;82.20
41344;DHT22;27089;50.022;7.604;2023-09-07T10:28:22;28.20;84.00
41344;DHT22;27089;50.022;7.604;2023-09-07T10:31:02;28.00;86.10
41344;DHT22;27089;50.022;7.604;2023-09-07T10:33:32;27.70;88.10
41344;DHT22;27089;50.022;7.604;2023-09-07T10:36:00;27.30;91.20
41344;DHT22;27089;50.022;7.604;2023-09-07T10:38:27;26.70;92.70
41344;DHT22;27089;50.022;7.604;2023-09-07T10:40:55;26.40;93.80
41344;DHT22;27089;50.022;7.604;2023-09-07T10:43:25;26.30;94.50
41344;DHT22;27089;50.022;7.604;2023-09-07T10:45:53;26.30;95.80
41344;DHT22;27089;50.022;7.604;2023-09-07T10:48:21;26.30;96.20
41344;DHT22;27089;50.022;7.604;2023-09-07T10:50:49;26.30;95.30
41344;DHT22;27089;50.022;7.604;2023-09-07T10:53:25;26.40;95.40
41344;DHT22;27089;50.022;7.604;2023-09-07T10:55:53;26.10;95.70
41344;DHT22;27089;50.022;7.604;2023-09-07T10:58:26;26.00;98.10
41344;DHT22;27089;50.022;7.604;2023-09-07T11:00:54;26.00;95.90
41344;DHT22;27089;50.022;7.604;2023-09-07T11:03:21;26.10;96.40
41344;DHT22;27089;50.022;7.604;2023-09-07T11:05:49;26.10;95.20
41344;DHT22;27089;50.022;7.604;2023-09-07T11:08:16;26.10;95.40
41344;DHT22;27089;50.022;7.604;2023-09-07T11:10:43;26.20;95.60
41344;DHT22;27089;50.022;7.604;2023-09-07T11:13:10;26.30;93.30
41344;DHT22;27089;50.022;7.604;2023-09-07T11:15:39;26.40;94.70
41344;DHT22;27089;50.022;7.604;2023-09-07T11:18:06;26.40;94.50
41344;DHT22;27089;50.022;7.604;2023-09-07T11:20:35;26.50;92.70
41344;DHT22;27089;50.022;7.604;2023-09-07T11:23:05;26.50;93.70
41344;DHT22;27089;50.022;7.604;2023-09-07T11:25:36;26.50;92.10
41344;DHT22;27089;50.022;7.604;2023-09-07T11:28:04;26.50;90.70
41344;DHT22;27089;50.022;7.604;2023-09-07T11:30:31;26.20;91.30
41344;DHT22;27089;50.022;7.604;2023-09-07T11:33:05;26.20;92.40
41344;DHT22;27089;50.022;7.604;2023-09-07T11:35:32;26.10;91.40
41344;DHT22;27089;50.022;7.604;2023-09-07T11:38:00;26.00;91.30
41344;DHT22;27089;50.022;7.604;2023-09-07T11:40:29;26.00;90.60
41344;DHT22;27089;50.022;7.604;2023-09-07T11:42:56;25.90;91.60
41344;DHT22;27089;50.022;7.604;2023-09-07T11:45:24;25.90;91.30
41344;DHT22;27089;50.022;7.604;2023-09-07T11:47:51;26.00;91.90
41344;DHT22;27089;50.022;7.604;2023-09-07T11:50:22;26.10;92.00
41344;DHT22;27089;50.022;7.604;2023-09-07T11:52:50;26.20;91.70
41344;DHT22;27089;50.022;7.604;2023-09-07T11:55:17;26.30;91.00
41344;DHT22;27089;50.022;7.604;2023-09-07T11:57:46;26.30;91.50
41344;DHT22;27089;50.022;7.604;2023-09-07T12:00:13;26.30;91.80
41344;DHT22;27089;50.022;7.604;2023-09-07T12:02:41;26.30;91.90
41344;DHT22;27089;50.022;7.604;2023-09-07T12:05:08;26.40;91.10
41344;DHT22;27089;50.022;7.604;2023-09-07T12:07:37;26.60;91.40
41344;DHT22;27089;50.022;7.604;2023-09-07T12:10:05;26.70;90.30
41344;DHT22;27089;50.022;7.604;2023-09-07T12:12:36;26.50;90.50
41344;DHT22;27089;50.022;7.604;2023-09-07T12:15:03;26.50;91.10
41344;DHT22;27089;50.022;7.604;2023-09-07T12:17:31;26.40;90.40
41344;DHT22;27089;50.022;7.604;2023-09-07T12:19:58;26.30;90.80
41344;DHT22;27089;50.022;7.604;2023-09-07T12:22:25;26.30;91.30
41344;DHT22;27089;50.022;7.604;2023-09-07T12:24:53;26.30;90.00
41344;DHT22;27089;50.022;7.604;2023-09-07T12:27:20;26.20;91.10
41344;DHT22;27089;50.022;7.604;2023-09-07T12:29:48;26.20;90.50
41344;DHT22;27089;50.022;7.604;2023-09-07T12:32:14;26.10;89.90
41344;DHT22;27089;50.022;7.604;2023-09-07T12:34:41;26.20;92.20
41344;DHT22;27089;50.022;7.604;2023-09-07T12:37:09;26.30;91.30
41344;DHT22;27089;50.022;7.604;2023-09-07T12:39:37;26.50;94.10
41344;DHT22;27089;50.022;7.604;2023-09-07T12:42:05;26.50;92.30
41344;DHT22;27089;50.022;7.604;2023-09-07T12:44:32;26.50;92.00
41344;DHT22;27089;50.022;7.604;2023-09-07T12:46:59;26.50;92.10
41344;DHT22;27089;50.022;7.604;2023-09-07T12:49:26;26.30;91.90
41344;DHT22;27089;50.022;7.604;2023-09-07T12:51:53;26.30;91.40
41344;DHT22;27089;50.022;7.604;2023-09-07T12:54:20;26.40;92.80
41344;DHT22;27089;50.022;7.604;2023-09-07T12:56:47;26.30;92.00
41344;DHT22;27089;50.022;7.604;2023-09-07T12:59:15;26.30;93.70
41344;DHT22;27089;50.022;7.604;2023-09-07T13:01:42;26.30;92.00
41344;DHT22;27089;50.022;7.604;2023-09-07T13:04:09;26.40;91.00
41344;DHT22;27089;50.022;7.604;2023-09-07T13:06:37;26.50;91.90
41344;DHT22;27089;50.022;7.604;2023-09-07T13:09:04;26.60;92.90
41344;DHT22;27089;50.022;7.604;2023-09-07T13:11:31;26.70;91.40
41344;DHT22;27089;50.022;7.604;2023-09-07T13:13:58;26.80;92.70
41344;DHT22;27089;50.022;7.604;2023-09-07T13:16:27;26.80;92.00
41344;DHT22;27089;50.022;7.604;2023-09-07T13:18:54;26.70;91.30
41344;DHT22;27089;50.022;7.604;2023-09-07T13:21:21;26.70;93.30
41344;DHT22;27089;50.022;7.604;2023-09-07T13:23:48;26.50;91.20
41344;DHT22;27089;50.022;7.604;2023-09-07T13:26:15;26.60;91.40
41344;DHT22;27089;50.022;7.604;2023-09-07T13:28:42;26.60;92.00
41344;DHT22;27089;50.022;7.604;2023-09-07T13:31:09;26.60;93.00
41344;DHT22;27089;50.022;7.604;2023-09-07T13:33:37;26.60;92.30
41344;DHT22;27089;50.022;7.604;2023-09-07T13:36:04;26.50;93.10
41344;DHT22;27089;50.022;7.604;2023-09-07T13:38:31;26.60;93.80
41344;DHT22;27089;50.022;7.604;2023-09-07T13:40:58;26.70;91.90
41344;DHT22;27089;50.022;7.604;2023-09-07T13:43:25;26.60;91.40
41344;DHT22;27089;50.022;7.604;2023-09-07T13:45:52;26.60;90.60
41344;DHT22;27089;50.022;7.604;2023-09-07T13:48:20;26.70;91.00
41344;DHT22;27089;50.022;7.604;2023-09-07T13:50:48;26.80;91.10
41344;DHT22;27089;50.022;7.604;2023-09-07T13:53:15;26.70;90.50
41344;DHT22;27089;50.022;7.604;2023-09-07T13:55:42;26.60;91.20
41344;DHT22;27089;50.022;7.604;2023-09-07T13:58:11;26.50;88.90
41344;DHT22;27089;50.022;7.604;2023-09-07T14:00:38;26.50;90.60
41344;DHT22;27089;50.022;7.604;2023-09-07T14:03:05;26.50;90.40
41344;DHT22;27089;50.022;7.604;2023-09-07T14:05:32;26.60;90.50
41344;DHT22;27089;50.022;7.604;2023-09-07T14:08:01;26.70;89.50
41344;DHT22;27089;50.022;7.604;2023-09-07T14:10:28;26.70;88.00
41344;DHT22;27089;50.022;7.604;2023-09-07T14:12:55;26.60;89.60
41344;DHT22;27089;50.022;7.604;2023-09-07T14:15:21;26.60;90.30
41344;DHT22;27089;50.022;7.604;2023-09-07T14:17:48;26.50;88.50
41344;DHT22;27089;50.022;7.604;2023-09-07T14:20:16;26.60;90.00
41344;DHT22;27089;50.022;7.604;2023-09-07T14:22:43;26.60;86.20
41344;DHT22;27089;50.022;7.604;2023-09-07T14:25:11;26.60;86.50
41344;DHT22;27089;50.022;7.604;2023-09-07T14:27:39;26.60;88.80
41344;DHT22;27089;50.022;7.604;2023-09-07T14:30:07;26.50;86.00
41344;DHT22;27089;50.022;7.604;2023-09-07T14:32:34;26.50;86.30
41344;DHT22;27089;50.022;7.604;2023-09-07T14:35:01;26.50;88.60
41344;DHT22;27089;50.022;7.604;2023-09-07T14:37:28;26.50;85.80
41344;DHT22;27089;50.022;7.604;2023-09-07T14:39:55;26.50;87.20
41344;DHT22;27089;50.022;7.604;2023-09-07T14:42:26;26.50;86.10
41344;DHT22;27089;50.022;7.604;2023-09-07T14:44:53;26.60;87.20
41344;DHT22;27089;50.022;7.604;2023-09-07T14:47:20;26.60;88.30
41344;DHT22;27089;50.022;7.604;2023-09-07T14:49:51;26.60;90.10
41344;DHT22;27089;50.022;7.604;2023-09-07T14:52:18;26.70;89.20
41344;DHT22;27089;50.022;7.604;2023-09-07T14:54:47;26.60;89.80
41344;DHT22;27089;50.022;7.604;2023-09-07T14:57:14;26.50;89.50
41344;DHT22;27089;50.022;7.604;2023-09-07T14:59:43;26.50;88.90
41344;DHT22;27089;50.022;7.604;2023-09-07T15:02:10;26.50;89.30
41344;DHT22;27089;50.022;7.604;2023-09-07T15:04:36;26.40;91.10
41344;DHT22;27089;50.022;7.604;2023-09-07T15:07:04;26.50;90.70
41344;DHT22;27089;50.022;7.604;2023-09-07T15:09:31;26.40;91.80
41344;DHT22;27089;50.022;7.604;2023-09-07T15:11:58;26.40;91.90
41344;DHT22;27089;50.022;7.604;2023-09-07T15:14:25;26.40;91.40
41344;DHT22;27089;50.022;7.604;2023-09-07T15:16:54;26.30;91.50
41344;DHT22;27089;50.022;7.604;2023-09-07T15:19:21;26.30;91.50
41344;DHT22;27089;50.022;7.604;2023-09-07T15:21:48;26.30;92.90
41344;DHT22;27089;50.022;7.604;2023-09-07T15:24:17;26.20;92.50
41344;DHT22;27089;50.022;7.604;2023-09-07T15:26:45;26.20;92.10
41344;DHT22;27089;50.022;7.604;2023-09-07T15:29:12;26.20;92.40
41344;DHT22;27089;50.022;7.604;2023-09-07T15:31:39;26.20;92.50
41344;DHT22;27089;50.022;7.604;2023-09-07T15:34:07;26.20;92.80